createdAt,value
2023-04-23T00:01:59.903Z,5.70
2023-04-23T00:04:29.106Z,5.70
2023-04-23T00:06:57.688Z,5.73
2023-04-23T00:09:26.573Z,5.72
2023-04-23T00:11:55.159Z,5.68
2023-04-23T00:14:23.739Z,5.60
2023-04-23T00:16:52.943Z,5.52
2023-04-23T00:19:21.213Z,5.45
2023-04-23T00:21:49.602Z,5.40
2023-04-23T00:24:17.968Z,5.32
2023-04-23T00:26:46.391Z,5.27
2023-04-23T00:29:14.621Z,5.25
2023-04-23T00:31:43.093Z,5.23
2023-04-23T00:34:11.497Z,5.22
2023-04-23T00:36:40.071Z,5.23
2023-04-23T00:39:08.441Z,5.18
2023-04-23T00:41:37.546Z,5.05
2023-04-23T00:44:05.715Z,4.96
2023-04-23T00:46:34.187Z,4.88
2023-04-23T00:49:02.681Z,4.80
2023-04-23T00:51:32.892Z,4.72
2023-04-23T00:54:01.074Z,4.71
2023-04-23T00:56:29.468Z,4.69
2023-04-23T00:58:57.828Z,4.66
2023-04-23T01:01:26.289Z,4.67
2023-04-23T01:03:56.634Z,4.73
2023-04-23T01:06:29.031Z,4.78
2023-04-23T01:08:57.279Z,4.79
2023-04-23T01:11:25.963Z,4.78
2023-04-23T01:13:54.953Z,4.73
2023-04-23T01:16:23.489Z,4.70
2023-04-23T01:18:53.972Z,4.70
2023-04-23T01:21:22.547Z,4.68
2023-04-23T01:23:51.233Z,4.59
2023-04-23T01:26:19.838Z,4.50
2023-04-23T01:28:48.096Z,4.47
2023-04-23T01:31:17.316Z,4.39
2023-04-23T01:33:45.979Z,4.26
2023-04-23T01:36:14.456Z,4.17
2023-04-23T01:38:42.830Z,4.19
2023-04-23T01:41:11.315Z,4.27
2023-04-23T01:43:40.815Z,4.32
2023-04-23T01:46:09.121Z,4.33
2023-04-23T01:48:37.983Z,4.29
2023-04-23T01:51:06.358Z,4.26
2023-04-23T01:53:34.629Z,4.27
2023-04-23T01:56:03.434Z,4.34
2023-04-23T01:58:32.013Z,4.40
2023-04-23T02:01:00.282Z,4.42
2023-04-23T02:03:34.195Z,4.41
2023-04-23T02:06:05.164Z,4.40
2023-04-23T02:08:33.911Z,4.40
2023-04-23T02:11:03.018Z,4.39
2023-04-23T02:13:32.422Z,4.40
2023-04-23T02:16:00.912Z,4.39
2023-04-23T02:18:31.013Z,4.35
2023-04-23T02:21:00.027Z,4.31
2023-04-23T02:23:28.486Z,4.29
2023-04-23T02:25:57.381Z,4.30
2023-04-23T02:28:26.673Z,4.28
2023-04-23T02:30:56.112Z,4.23
2023-04-23T02:33:26.092Z,4.19
2023-04-23T02:35:54.482Z,4.18
2023-04-23T02:38:24.179Z,4.15
2023-04-23T02:40:53.080Z,4.12
2023-04-23T02:43:22.781Z,4.11
2023-04-23T02:45:51.572Z,4.16
2023-04-23T02:48:22.509Z,4.21
2023-04-23T02:50:51.601Z,4.22
2023-04-23T02:53:19.775Z,4.20
2023-04-23T02:55:48.149Z,4.15
2023-04-23T02:58:16.838Z,4.13
2023-04-23T03:00:45.698Z,4.11
2023-04-23T03:20:01.412Z,4.05
2023-04-23T03:22:31.019Z,4.05
2023-04-23T03:24:59.402Z,4.06
2023-04-23T03:27:27.886Z,4.10
2023-04-23T03:29:56.873Z,4.13
2023-04-23T03:32:26.089Z,4.18
2023-04-23T03:34:54.347Z,4.25
2023-04-23T03:37:25.671Z,4.37
2023-04-23T03:39:54.069Z,4.51
2023-04-23T03:42:22.350Z,4.66
2023-04-23T03:44:51.032Z,4.83
2023-04-23T03:47:19.641Z,5.02
2023-04-23T03:49:48.198Z,5.18
2023-04-23T03:52:16.785Z,5.35
2023-04-23T03:54:45.161Z,5.58
2023-04-23T03:57:17.638Z,5.83
2023-04-23T04:00:01.678Z,6.07
2023-04-23T04:02:31.338Z,6.25
2023-04-23T04:05:00.174Z,6.48
2023-04-23T04:07:29.780Z,6.66
2023-04-23T04:09:58.469Z,6.80
2023-04-23T04:12:27.669Z,6.98
2023-04-23T04:14:56.576Z,7.10
2023-04-23T04:17:24.763Z,7.25
2023-04-23T04:19:53.318Z,7.47
2023-04-23T04:22:21.799Z,7.68
2023-04-23T04:24:52.819Z,7.84
2023-04-23T04:27:21.529Z,7.91
2023-04-23T04:29:49.796Z,8.04
2023-04-23T04:32:18.084Z,8.21
2023-04-23T04:34:47.160Z,8.33
2023-04-23T04:37:15.451Z,8.44
2023-04-23T04:39:43.927Z,8.57
2023-04-23T04:42:13.240Z,8.66
2023-04-23T04:44:42.704Z,8.71
2023-04-23T04:47:13.670Z,8.82
2023-04-23T04:49:42.042Z,8.92
2023-04-23T04:52:10.630Z,9.02
2023-04-23T04:54:39.000Z,9.09
2023-04-23T04:57:07.379Z,9.24
2023-04-23T05:00:52.170Z,9.44
2023-04-23T05:03:22.084Z,9.49
2023-04-23T05:05:50.444Z,9.58
2023-04-23T05:08:19.132Z,9.74
2023-04-23T05:10:47.402Z,9.92
2023-04-23T05:13:16.294Z,10.03
2023-04-23T05:15:44.436Z,10.07
2023-04-23T05:18:12.640Z,10.13
2023-04-23T05:20:41.836Z,10.24
2023-04-23T05:23:10.308Z,10.36
2023-04-23T05:25:38.593Z,10.42
2023-04-23T05:28:08.846Z,10.45
2023-04-23T05:30:37.608Z,10.47
2023-04-23T05:33:06.254Z,10.47
2023-04-23T05:35:34.662Z,10.46
2023-04-23T05:38:03.350Z,10.50
2023-04-23T05:40:31.829Z,10.46
2023-04-23T05:42:59.994Z,10.36
2023-04-23T05:45:28.576Z,10.35
2023-04-23T05:47:56.900Z,10.38
2023-04-23T05:50:25.236Z,10.45
2023-04-23T05:52:54.128Z,10.57
2023-04-23T05:55:24.022Z,10.66
2023-04-23T05:57:52.236Z,10.80
2023-04-23T06:00:20.993Z,10.97
2023-04-23T06:02:49.516Z,11.18
2023-04-23T06:05:18.208Z,11.34
2023-04-23T06:07:47.046Z,11.41
2023-04-23T06:10:15.634Z,11.47
2023-04-23T06:12:43.906Z,11.51
2023-04-23T06:18:41.689Z,11.66
2023-04-23T06:21:10.485Z,11.70
2023-04-23T06:23:38.872Z,11.74
2023-04-23T06:26:07.851Z,11.72
2023-04-23T06:28:36.129Z,11.83
2023-04-23T06:31:28.098Z,11.99
2023-04-23T06:33:57.052Z,12.19
2023-04-23T06:36:25.628Z,12.40
2023-04-23T06:38:53.808Z,12.51
2023-04-23T06:41:22.190Z,12.49
2023-04-23T06:44:01.418Z,12.49
2023-04-23T06:46:34.414Z,12.48
2023-04-23T06:49:02.877Z,12.48
2023-04-23T06:51:32.489Z,12.44
2023-04-23T06:54:00.861Z,12.52
2023-04-23T06:56:29.458Z,12.60
2023-04-23T06:58:58.037Z,12.65
2023-04-23T07:01:27.248Z,12.78
2023-04-23T07:03:55.736Z,12.84
2023-04-23T07:06:23.992Z,12.95
2023-04-23T07:08:52.373Z,13.04
2023-04-23T07:11:20.866Z,13.14
2023-04-23T07:13:49.589Z,13.30
2023-04-23T07:16:19.791Z,13.43
2023-04-23T07:18:49.884Z,13.52
2023-04-23T07:21:18.276Z,13.63
2023-04-23T07:23:46.848Z,13.83
2023-04-23T07:26:16.463Z,14.03
2023-04-23T07:28:46.578Z,14.06
2023-04-23T07:31:15.804Z,14.16
2023-04-23T07:33:44.154Z,14.29
2023-04-23T07:36:12.948Z,14.36
2023-04-23T07:38:41.524Z,14.47
2023-04-23T07:41:10.109Z,14.68
2023-04-23T07:43:38.938Z,14.85
2023-04-23T07:46:08.337Z,15.11
2023-04-23T07:48:36.884Z,15.28
2023-04-23T08:20:18.965Z,17.50
2023-04-23T08:22:47.445Z,17.67
2023-04-23T08:25:17.975Z,17.81
2023-04-23T08:27:46.357Z,17.98
2023-04-23T08:30:14.936Z,18.20
2023-04-23T08:32:43.676Z,18.28
2023-04-23T08:35:13.025Z,18.35
2023-04-23T08:37:41.414Z,18.48
2023-04-23T08:40:10.404Z,18.77
2023-04-23T08:42:44.066Z,19.07
2023-04-23T08:45:12.705Z,19.18
2023-04-23T08:47:43.382Z,19.20
2023-04-23T08:50:13.147Z,19.10
2023-04-23T08:52:45.033Z,18.97
2023-04-23T08:55:15.181Z,19.06
2023-04-23T08:57:43.368Z,19.16
2023-04-23T09:00:12.591Z,19.43
2023-04-23T09:02:42.518Z,19.79
2023-04-23T09:05:11.480Z,19.90
2023-04-23T09:07:40.158Z,20.03
2023-04-23T09:10:10.440Z,20.18
2023-04-23T09:12:41.150Z,19.95
2023-04-23T09:15:13.056Z,19.72
2023-04-23T09:17:45.298Z,19.61
2023-04-23T09:20:14.606Z,19.54
2023-04-23T09:22:47.307Z,19.45
2023-04-23T09:25:18.243Z,19.34
2023-04-23T09:27:47.467Z,19.26
2023-04-23T09:30:16.589Z,19.11
2023-04-23T09:32:49.760Z,18.95
2023-04-23T09:35:21.717Z,18.86
2023-04-23T09:37:53.030Z,18.74
2023-04-23T09:40:25.842Z,18.59
2023-04-23T09:42:55.117Z,18.48
2023-04-23T09:45:25.962Z,18.39
2023-04-23T09:47:55.574Z,18.30
2023-04-23T09:50:39.835Z,18.24
2023-04-23T09:53:09.495Z,18.18
2023-04-23T09:55:39.498Z,18.05
2023-04-23T09:58:11.933Z,17.87
2023-04-23T10:00:40.311Z,17.69
2023-04-23T10:03:09.994Z,17.55
2023-04-23T10:08:16.244Z,17.33
2023-04-23T10:10:57.546Z,17.20
2023-04-23T10:13:32.090Z,17.16
2023-04-23T10:16:14.116Z,17.13
2023-04-23T10:18:50.660Z,17.16
2023-04-23T10:21:18.844Z,17.16
2023-04-23T10:23:48.024Z,17.15
2023-04-23T10:26:17.140Z,17.15
2023-04-23T10:28:48.266Z,17.18
2023-04-23T10:31:16.988Z,17.17
2023-04-23T10:33:56.043Z,17.11
2023-04-23T10:36:28.324Z,16.99
2023-04-23T10:39:01.350Z,16.89
2023-04-23T10:41:36.513Z,16.85
2023-04-23T10:44:06.082Z,16.86
2023-04-23T10:46:37.161Z,16.86
2023-04-23T10:49:17.223Z,16.89
2023-04-23T10:54:19.985Z,17.02
2023-04-23T10:56:49.907Z,17.08
2023-04-23T10:59:21.846Z,17.20
2023-04-23T11:01:50.768Z,17.35
2023-04-23T11:04:29.369Z,17.53
2023-04-23T11:07:08.492Z,17.68
2023-04-23T11:09:40.118Z,17.67
2023-04-23T11:12:13.251Z,17.57
2023-04-23T11:14:48.783Z,17.50
2023-04-23T11:17:37.535Z,17.45
2023-04-23T11:20:10.656Z,17.41
2023-04-23T11:22:43.526Z,17.20
2023-04-23T11:25:16.702Z,16.79
2023-04-23T11:27:45.966Z,16.47
2023-04-23T11:30:15.113Z,16.29
2023-04-23T11:32:51.045Z,16.19
2023-04-23T11:35:20.653Z,16.17
2023-04-23T11:37:49.546Z,16.24
2023-04-23T11:40:21.417Z,16.35
2023-04-23T11:42:55.372Z,16.40
2023-04-23T11:45:25.988Z,16.17
2023-04-23T11:47:59.411Z,15.94
2023-04-23T11:50:28.757Z,15.83
2023-04-23T11:52:57.219Z,15.92
2023-04-23T11:55:25.754Z,16.02
2023-04-23T11:57:54.081Z,16.14
2023-04-23T12:00:24.305Z,16.16
2023-04-23T12:03:03.054Z,16.21
2023-04-23T12:05:42.526Z,16.40
2023-04-23T12:08:21.279Z,16.59
2023-04-23T12:10:53.341Z,16.69
2023-04-23T12:13:22.844Z,16.81
2023-04-23T12:15:53.662Z,16.81
2023-04-23T12:18:30.865Z,16.82
2023-04-23T12:21:06.413Z,16.76
2023-04-23T12:23:36.337Z,16.69
2023-04-23T12:26:06.114Z,16.55
2023-04-23T12:28:35.129Z,16.41
2023-04-23T12:31:03.938Z,16.37
2023-04-23T12:33:32.500Z,16.35
2023-04-23T12:36:01.093Z,16.35
2023-04-23T12:38:30.078Z,16.27
2023-04-23T12:40:59.682Z,16.13
2023-04-23T12:43:28.063Z,16.06
2023-04-23T12:45:56.445Z,16.09
2023-04-23T12:48:24.816Z,16.08
2023-04-23T12:50:53.408Z,16.06
2023-04-23T12:53:22.192Z,16.14
2023-04-23T12:55:50.774Z,16.20
2023-04-23T12:58:18.946Z,16.22
2023-04-23T13:00:47.143Z,16.28
2023-04-23T13:03:15.830Z,16.38
2023-04-23T13:05:44.384Z,16.51
2023-04-23T13:08:12.768Z,16.59
2023-04-23T13:10:41.062Z,16.61
2023-04-23T13:13:09.729Z,16.64
2023-04-23T13:15:38.013Z,16.69
2023-04-23T13:18:07.128Z,16.76
2023-04-23T13:20:35.783Z,16.89
2023-04-23T13:23:04.056Z,17.08
2023-04-23T13:25:32.546Z,17.27
2023-04-23T13:28:00.968Z,17.44
2023-04-23T13:30:29.699Z,17.58
2023-04-23T13:32:59.367Z,17.75
2023-04-23T13:35:27.995Z,17.86
2023-04-23T13:37:56.370Z,17.92
2023-04-23T13:40:24.649Z,17.99
2023-04-23T13:42:55.186Z,18.00
2023-04-23T13:45:23.348Z,17.96
2023-04-23T13:47:51.942Z,17.91
2023-04-23T13:50:20.224Z,17.88
2023-04-23T13:52:48.606Z,17.86
2023-04-23T13:55:17.169Z,17.86
2023-04-23T13:57:45.548Z,17.87
2023-04-23T14:00:14.542Z,17.92
2023-04-23T14:02:42.839Z,18.02
2023-04-23T14:05:11.503Z,18.23
2023-04-23T14:07:40.086Z,18.44
2023-04-23T14:10:09.087Z,18.62
2023-04-23T14:12:39.098Z,18.86
2023-04-23T14:15:08.720Z,19.17
2023-04-23T14:17:39.309Z,19.44
2023-04-23T14:20:08.655Z,19.68
2023-04-23T14:22:37.213Z,19.89
2023-04-23T14:25:15.625Z,20.05
2023-04-23T14:27:47.076Z,20.18
2023-04-23T14:30:17.142Z,20.10
2023-04-23T14:32:49.312Z,19.95
2023-04-23T14:35:24.563Z,19.80
2023-04-23T14:37:56.461Z,19.71
2023-04-23T14:40:23.705Z,19.41
2023-04-23T14:42:51.098Z,19.01
2023-04-23T14:45:19.244Z,18.58
2023-04-23T14:47:50.619Z,18.21
2023-04-23T14:50:17.787Z,17.77
2023-04-23T14:52:48.776Z,17.30
2023-04-23T14:55:17.053Z,16.86
2023-04-23T14:57:44.038Z,16.52
2023-04-23T15:00:13.432Z,16.27
2023-04-23T15:02:41.172Z,16.08
2023-04-23T15:05:09.369Z,15.92
2023-04-23T15:07:37.296Z,15.78
2023-04-23T15:10:09.463Z,15.63
2023-04-23T15:13:15.233Z,15.47
2023-04-23T15:15:55.845Z,15.32
2023-04-23T15:18:22.958Z,15.22
2023-04-23T15:20:50.083Z,15.17
2023-04-23T15:23:19.617Z,15.21
2023-04-23T15:25:46.938Z,15.31
2023-04-23T15:28:13.893Z,15.37
2023-04-23T15:30:43.539Z,15.36
2023-04-23T15:33:11.264Z,15.32
2023-04-23T15:35:38.207Z,15.31
2023-04-23T15:38:05.263Z,15.48
2023-04-23T15:40:32.310Z,15.79
2023-04-23T15:42:59.258Z,16.14
2023-04-23T15:45:26.313Z,16.40
2023-04-23T15:47:53.374Z,16.48
2023-04-23T15:50:26.834Z,16.42
2023-04-23T15:52:53.780Z,16.31
2023-04-23T15:55:21.451Z,16.17
2023-04-23T15:57:48.390Z,16.01
2023-04-23T16:00:17.066Z,15.88
2023-04-23T16:02:44.109Z,15.80
2023-04-23T16:05:12.086Z,15.78
2023-04-23T16:07:39.227Z,15.69
2023-04-23T16:10:07.298Z,15.57
2023-04-23T16:12:34.243Z,15.43
2023-04-23T16:15:01.293Z,15.29
2023-04-23T16:17:29.015Z,15.18
2023-04-23T16:19:56.011Z,15.07
2023-04-23T16:22:22.949Z,14.98
2023-04-23T16:24:49.894Z,14.90
2023-04-23T16:27:16.837Z,14.80
2023-04-23T16:29:44.075Z,14.69
2023-04-23T16:32:11.240Z,14.57
2023-04-23T16:34:38.180Z,14.42
2023-04-23T16:37:05.637Z,14.28
2023-04-23T16:39:33.401Z,14.13
2023-04-23T16:42:00.345Z,13.98
2023-04-23T16:44:27.295Z,13.82
2023-04-23T16:46:54.242Z,13.67
2023-04-23T16:49:22.106Z,13.53
2023-04-23T16:51:49.243Z,13.39
2023-04-23T16:54:16.399Z,13.26
2023-04-23T16:56:45.596Z,13.12
2023-04-23T16:59:12.949Z,12.99
2023-04-23T17:01:39.927Z,12.87
2023-04-23T17:04:07.408Z,12.77
2023-04-23T17:06:34.705Z,12.68
2023-04-23T17:09:02.267Z,12.58
2023-04-23T17:11:29.933Z,12.48
2023-04-23T17:13:57.069Z,12.39
2023-04-23T17:19:04.286Z,12.25
2023-04-23T17:21:32.577Z,12.16
2023-04-23T17:23:59.703Z,12.11
2023-04-23T17:26:26.863Z,12.04
2023-04-23T17:28:53.893Z,11.97
2023-04-23T17:31:21.577Z,11.91
2023-04-23T17:33:50.477Z,11.85
2023-04-23T17:36:17.815Z,11.77
2023-04-23T17:38:44.745Z,11.70
2023-04-23T17:41:12.410Z,11.63
2023-04-23T17:43:39.874Z,11.57
2023-04-23T17:46:06.926Z,11.49
2023-04-23T17:48:33.965Z,11.39
2023-04-23T17:51:02.097Z,11.29
2023-04-23T17:53:29.484Z,11.19
2023-04-23T17:56:00.418Z,11.08
2023-04-23T17:58:27.569Z,10.95
2023-04-23T18:00:54.665Z,10.81
2023-04-23T18:03:22.151Z,10.67
2023-04-23T18:05:49.439Z,10.51
2023-04-23T18:08:17.322Z,10.37
2023-04-23T18:10:45.651Z,10.26
2023-04-23T18:13:13.659Z,10.13
2023-04-23T18:15:42.303Z,9.98
2023-04-23T18:18:09.606Z,9.84
2023-04-23T18:20:38.644Z,9.69
2023-04-23T18:23:06.829Z,9.56
2023-04-23T18:25:34.309Z,9.45
2023-04-23T18:28:01.456Z,9.33
2023-04-23T18:30:28.704Z,9.19
2023-04-23T18:33:11.379Z,9.04
2023-04-23T18:35:43.952Z,8.88
2023-04-23T18:38:11.326Z,8.75
2023-04-23T18:40:38.366Z,8.63
2023-04-23T18:43:05.340Z,8.51
2023-04-23T18:45:32.326Z,8.40
2023-04-23T18:48:04.643Z,8.30
2023-04-23T18:50:44.447Z,8.20
2023-04-23T18:53:11.640Z,8.10
2023-04-23T18:55:38.602Z,8.02
2023-04-23T18:58:05.752Z,7.92
2023-04-23T19:00:32.770Z,7.84
2023-04-23T19:03:01.327Z,7.75
2023-04-23T19:05:29.805Z,7.68
2023-04-23T19:07:56.733Z,7.62
2023-04-23T19:10:23.641Z,7.56
2023-04-23T19:12:50.985Z,7.52
2023-04-23T19:18:43.253Z,7.49
2023-04-23T19:21:10.811Z,7.44
2023-04-23T19:23:38.370Z,7.40
2023-04-23T19:26:05.829Z,7.34
2023-04-23T19:28:33.072Z,7.27
2023-04-23T19:31:00.254Z,7.21
2023-04-23T19:33:27.372Z,7.14
2023-04-23T19:35:54.420Z,7.10
2023-04-23T19:38:21.466Z,7.05
2023-04-23T19:40:48.725Z,6.95
2023-04-23T19:43:15.764Z,6.87
2023-04-23T19:45:42.813Z,6.82
2023-04-23T19:48:09.859Z,6.76
2023-04-23T19:50:37.016Z,6.70
2023-04-23T19:53:05.622Z,6.65
2023-04-23T19:55:33.047Z,6.60
2023-04-23T19:58:00.210Z,6.56
2023-04-23T20:00:30.110Z,6.58
2023-04-23T20:02:58.065Z,6.68
2023-04-23T20:05:25.842Z,6.72
2023-04-23T20:07:52.994Z,6.71
2023-04-23T20:10:20.046Z,6.69
2023-04-23T20:12:46.928Z,6.72
2023-04-23T20:15:14.449Z,6.74
2023-04-23T20:17:41.726Z,6.73
2023-04-23T20:20:10.726Z,6.72
2023-04-23T20:22:37.763Z,6.67
2023-04-23T20:25:05.351Z,6.64
2023-04-23T20:27:32.327Z,6.61
2023-04-23T20:29:59.469Z,6.64
2023-04-23T20:32:26.422Z,6.70
2023-04-23T20:34:53.365Z,6.75
2023-04-23T20:37:21.824Z,6.79
2023-04-23T20:39:49.941Z,6.88
2023-04-23T20:42:17.093Z,6.98
2023-04-23T20:44:45.596Z,7.06
2023-04-23T20:47:13.715Z,7.17
2023-04-23T20:49:41.026Z,7.26
2023-04-23T20:52:08.502Z,7.32
2023-04-23T20:54:36.361Z,7.42
2023-04-23T20:57:03.982Z,7.51
2023-04-23T20:59:31.053Z,7.57
2023-04-23T21:01:58.071Z,7.62
2023-04-23T21:04:25.283Z,7.61
2023-04-23T21:06:52.225Z,7.57
2023-04-23T21:09:19.174Z,7.52
2023-04-23T21:11:46.116Z,7.50
2023-04-23T21:14:12.983Z,7.46
2023-04-23T21:19:09.640Z,7.72
2023-04-23T21:21:36.682Z,7.80
2023-04-23T21:24:04.064Z,7.75
2023-04-23T21:26:31.506Z,7.68
2023-04-23T21:28:58.599Z,7.59
2023-04-23T21:31:43.520Z,7.50
2023-04-23T21:34:10.810Z,7.41
2023-04-23T21:36:38.533Z,7.35
2023-04-23T21:39:05.671Z,7.27
2023-04-23T21:41:33.434Z,7.14
2023-04-23T21:44:00.586Z,6.99
2023-04-23T21:46:27.687Z,6.85
2023-04-23T21:48:55.084Z,6.73
2023-04-23T21:51:22.848Z,6.62
2023-04-23T21:53:50.104Z,6.52
2023-04-23T21:56:17.553Z,6.42
2023-04-23T21:58:44.909Z,6.38
2023-04-23T22:01:12.012Z,6.39
2023-04-23T22:03:42.876Z,6.36
2023-04-23T22:06:10.046Z,6.28
2023-04-23T22:08:40.637Z,6.19
2023-04-23T22:11:08.391Z,6.09
2023-04-23T22:13:35.913Z,5.98
2023-04-23T22:16:06.597Z,5.90
2023-04-23T22:18:38.531Z,5.82
2023-04-23T22:21:06.054Z,5.74
2023-04-23T22:23:33.199Z,5.65
2023-04-23T22:26:00.145Z,5.58
2023-04-23T22:28:27.190Z,5.53
2023-04-23T22:30:54.558Z,5.53
2023-04-23T22:33:21.703Z,5.61
2023-04-23T22:35:48.638Z,5.71
2023-04-23T22:38:15.990Z,5.75
2023-04-23T22:40:43.044Z,5.76
2023-04-23T22:43:09.992Z,5.77
2023-04-23T22:45:37.033Z,5.77
2023-04-23T22:48:04.560Z,5.76
2023-04-23T22:50:31.536Z,5.78
2023-04-23T22:52:58.478Z,5.78
2023-04-23T22:55:25.731Z,5.77
2023-04-23T22:57:52.670Z,5.75
2023-04-23T23:00:19.723Z,5.73
2023-04-23T23:02:46.736Z,5.79
2023-04-23T23:05:14.020Z,5.79
2023-04-23T23:07:41.079Z,5.75
2023-04-23T23:10:09.092Z,5.73
2023-04-23T23:12:36.700Z,5.73
2023-04-23T23:15:04.151Z,5.75
2023-04-23T23:17:31.430Z,5.73
2023-04-23T23:19:58.558Z,5.71
2023-04-23T23:22:27.052Z,5.66
2023-04-23T23:24:54.285Z,5.56
2023-04-23T23:27:21.344Z,5.45
2023-04-23T23:29:48.280Z,5.34
2023-04-23T23:32:15.219Z,5.25
2023-04-23T23:34:42.269Z,5.15
2023-04-23T23:37:09.217Z,5.08
2023-04-23T23:39:36.154Z,5.03
2023-04-23T23:42:03.203Z,5.00
2023-04-23T23:44:30.146Z,4.95
2023-04-23T23:46:57.267Z,4.86
2023-04-23T23:49:24.345Z,4.80
2023-04-23T23:51:51.497Z,4.75
2023-04-23T23:54:18.538Z,4.74
2023-04-23T23:56:45.594Z,4.72
2023-04-23T23:59:12.638Z,4.69
